createdAt,value
2023-04-22T00:00:17.230Z,10.60
2023-04-22T00:02:44.640Z,11.18
2023-04-22T00:05:15.068Z,10.77
2023-04-22T00:07:43.558Z,14.32
2023-04-22T00:10:11.677Z,11.77
2023-04-22T00:12:38.839Z,13.60
2023-04-22T00:15:06.671Z,13.23
2023-04-22T00:17:33.867Z,13.90
2023-04-22T00:20:01.557Z,11.85
2023-04-22T00:22:28.549Z,15.15
2023-04-22T00:24:55.613Z,13.00
2023-04-22T00:27:22.584Z,12.80
2023-04-22T00:29:49.583Z,13.88
2023-04-22T00:32:17.455Z,19.15
2023-04-22T00:34:44.355Z,12.32
2023-04-22T00:37:11.485Z,12.88
2023-04-22T00:39:39.980Z,12.93
2023-04-22T00:42:07.912Z,14.30
2023-04-22T00:44:36.566Z,14.13
2023-04-22T00:47:05.668Z,17.52
2023-04-22T00:49:34.783Z,13.93
2023-04-22T00:52:02.107Z,16.52
2023-04-22T00:54:29.641Z,17.40
2023-04-22T00:56:57.917Z,15.98
2023-04-22T00:59:26.831Z,17.33
2023-04-22T01:01:54.315Z,15.32
2023-04-22T01:04:23.150Z,16.35
2023-04-22T01:06:53.057Z,17.88
2023-04-22T01:09:23.103Z,16.92
2023-04-22T01:11:50.266Z,17.45
2023-04-22T01:14:17.205Z,18.48
2023-04-22T01:16:45.207Z,18.60
2023-04-22T01:19:13.243Z,17.27
2023-04-22T01:21:40.920Z,20.35
2023-04-22T01:24:08.812Z,15.77
2023-04-22T01:26:37.238Z,12.02
2023-04-22T01:29:06.089Z,15.27
2023-04-22T01:31:33.590Z,16.85
2023-04-22T01:34:00.976Z,18.33
2023-04-22T01:36:28.093Z,18.75
2023-04-22T01:38:55.635Z,14.65
2023-04-22T01:41:22.645Z,16.15
2023-04-22T01:43:50.657Z,15.68
2023-04-22T01:46:18.184Z,13.43
2023-04-22T01:48:50.526Z,14.57
2023-04-22T01:51:18.310Z,14.23
2023-04-22T01:53:45.274Z,15.27
2023-04-22T01:56:12.310Z,14.68
2023-04-22T01:58:40.584Z,17.23
2023-04-22T02:01:10.481Z,14.93
2023-04-22T02:03:38.410Z,14.45
2023-04-22T02:06:05.908Z,15.07
2023-04-22T02:08:32.892Z,13.90
2023-04-22T02:11:00.961Z,16.45
2023-04-22T02:13:41.244Z,16.38
2023-04-22T02:16:09.378Z,12.48
2023-04-22T02:18:36.598Z,15.20
2023-04-22T02:21:03.802Z,16.27
2023-04-22T02:23:31.208Z,15.18
2023-04-22T02:25:58.178Z,15.73
2023-04-22T02:28:25.119Z,13.82
2023-04-22T02:30:52.068Z,15.80
2023-04-22T02:33:19.080Z,13.77
2023-04-22T02:35:46.467Z,15.20
2023-04-22T02:38:18.532Z,14.15
2023-04-22T02:40:45.445Z,15.00
2023-04-22T02:43:12.525Z,16.55
2023-04-22T02:45:40.926Z,13.73
2023-04-22T02:48:11.768Z,14.90
2023-04-22T02:50:39.770Z,15.30
2023-04-22T02:53:08.151Z,16.63
2023-04-22T02:55:35.387Z,15.10
2023-04-22T02:58:02.492Z,14.95
2023-04-22T03:00:29.622Z,14.85
2023-04-22T03:02:56.873Z,14.95
2023-04-22T03:05:28.987Z,17.48
2023-04-22T03:07:56.068Z,15.88
2023-04-22T03:10:23.081Z,15.10
2023-04-22T03:12:51.018Z,18.90
2023-04-22T03:15:21.283Z,15.95
2023-04-22T03:17:49.207Z,16.83
2023-04-22T03:20:17.079Z,14.52
2023-04-22T03:22:44.178Z,13.23
2023-04-22T03:25:13.525Z,15.00
2023-04-22T03:27:45.258Z,13.45
2023-04-22T03:30:12.430Z,15.63
2023-04-22T03:32:39.399Z,17.27
2023-04-22T03:35:16.538Z,19.52
2023-04-22T03:37:46.179Z,14.98
2023-04-22T03:40:17.735Z,14.63
2023-04-22T03:42:44.952Z,14.90
2023-04-22T03:45:12.084Z,15.77
2023-04-22T03:47:44.895Z,16.25
2023-04-22T03:50:21.080Z,17.90
2023-04-22T03:52:49.912Z,16.38
2023-04-22T03:55:20.787Z,17.98
2023-04-22T03:57:50.526Z,15.25
2023-04-22T04:00:17.683Z,17.10
2023-04-22T04:02:51.167Z,16.35
2023-04-22T04:05:21.968Z,16.77
2023-04-22T04:07:48.937Z,15.23
2023-04-22T04:10:16.027Z,14.82
2023-04-22T04:12:43.512Z,17.83
2023-04-22T04:15:11.983Z,15.70
2023-04-22T04:17:39.991Z,16.60
2023-04-22T04:20:07.436Z,15.20
2023-04-22T04:22:36.175Z,14.23
2023-04-22T04:25:06.838Z,14.48
2023-04-22T04:27:39.422Z,15.40
2023-04-22T04:30:07.617Z,14.38
2023-04-22T04:32:45.857Z,15.27
2023-04-22T04:35:15.333Z,21.70
2023-04-22T04:37:47.324Z,15.43
2023-04-22T04:40:15.443Z,14.05
2023-04-22T04:43:08.813Z,15.77
2023-04-22T04:45:50.664Z,14.13
2023-04-22T04:48:27.588Z,19.90
2023-04-22T04:51:04.489Z,15.00
2023-04-22T04:53:34.259Z,15.30
2023-04-22T04:56:01.836Z,18.83
2023-04-22T04:58:35.126Z,15.20
2023-04-22T05:01:20.804Z,16.95
2023-04-22T05:03:49.021Z,17.70
2023-04-22T05:06:18.186Z,17.50
2023-04-22T05:09:08.263Z,18.33
2023-04-22T05:11:36.601Z,21.10
2023-04-22T05:14:10.868Z,17.92
2023-04-22T05:16:41.447Z,20.75
2023-04-22T05:19:10.303Z,19.27
2023-04-22T05:21:40.066Z,18.83
2023-04-22T05:24:07.525Z,15.32
2023-04-22T05:26:34.720Z,16.73
2023-04-22T05:29:08.060Z,15.70
2023-04-22T05:31:35.105Z,17.42
2023-04-22T05:34:02.139Z,16.52
2023-04-22T05:36:31.615Z,15.10
2023-04-22T05:38:59.448Z,15.35
2023-04-22T05:41:27.259Z,12.88
2023-04-22T05:43:56.469Z,13.73
2023-04-22T05:46:24.393Z,17.52
2023-04-22T05:48:51.929Z,14.45
2023-04-22T05:51:37.784Z,15.63
2023-04-22T05:54:05.229Z,15.70
2023-04-22T05:56:32.486Z,17.45
2023-04-22T05:58:59.621Z,18.35
2023-04-22T06:01:27.186Z,15.32
2023-04-22T06:06:30.745Z,15.02
2023-04-22T06:08:57.863Z,14.13
2023-04-22T06:11:24.826Z,14.55
2023-04-22T06:13:51.792Z,17.15
2023-04-22T06:16:19.499Z,13.00
2023-04-22T06:18:46.994Z,17.00
2023-04-22T06:21:14.876Z,13.00
2023-04-22T06:23:42.665Z,18.65
2023-04-22T06:26:09.792Z,18.33
2023-04-22T06:28:37.724Z,18.65
2023-04-22T06:31:10.367Z,17.88
2023-04-22T06:33:37.431Z,17.92
2023-04-22T06:36:05.182Z,18.13
2023-04-22T06:38:33.579Z,15.90
2023-04-22T06:41:21.700Z,18.83
2023-04-22T06:43:50.308Z,16.98
2023-04-22T06:46:36.281Z,16.35
2023-04-22T06:49:21.839Z,20.60
2023-04-22T18:49:45.640Z,22.70
2023-04-22T18:52:12.634Z,21.85
2023-04-22T18:54:39.858Z,20.55
2023-04-22T18:57:06.975Z,23.88
2023-04-22T18:59:34.005Z,19.35
2023-04-22T19:02:01.086Z,20.75
2023-04-22T19:04:28.105Z,19.98
2023-04-22T19:06:57.117Z,17.85
2023-04-22T19:09:24.319Z,20.50
2023-04-22T19:11:51.308Z,27.63
2023-04-22T19:14:18.800Z,20.73
2023-04-22T19:16:45.931Z,18.58
2023-04-22T19:19:12.892Z,20.33
2023-04-22T19:21:40.481Z,21.40
2023-04-22T19:24:07.814Z,22.73
2023-04-22T19:26:34.777Z,20.45
2023-04-22T19:29:01.999Z,18.83
2023-04-22T19:31:29.132Z,21.55
2023-04-22T19:33:56.196Z,20.85
2023-04-22T19:36:23.416Z,18.60
2023-04-22T19:38:50.355Z,21.15
2023-04-22T19:41:17.459Z,22.15
2023-04-22T19:43:44.556Z,19.30
2023-04-22T19:46:11.814Z,20.42
2023-04-22T19:48:39.008Z,19.05
2023-04-22T19:51:06.787Z,20.70
2023-04-22T19:53:34.980Z,21.20
2023-04-22T19:56:03.089Z,26.67
2023-04-22T19:58:31.634Z,18.85
2023-04-22T20:00:58.749Z,19.88
2023-04-22T20:03:26.541Z,23.55
2023-04-22T20:05:54.607Z,25.33
2023-04-22T20:08:26.907Z,26.65
2023-04-22T20:10:55.293Z,23.00
2023-04-22T20:13:22.684Z,21.42
2023-04-22T20:15:50.263Z,22.60
2023-04-22T20:18:17.744Z,29.25
2023-04-22T20:20:48.305Z,23.08
2023-04-22T20:23:16.990Z,35.10
2023-04-22T20:25:44.735Z,26.50
2023-04-22T20:28:11.985Z,26.20
2023-04-22T20:30:39.822Z,23.80
2023-04-22T20:33:07.052Z,23.55
2023-04-22T20:35:35.985Z,20.75
2023-04-22T20:38:03.733Z,25.63
2023-04-22T20:40:30.910Z,25.48
2023-04-22T20:43:01.036Z,20.08
2023-04-22T20:45:28.620Z,25.25
2023-04-22T20:47:58.078Z,25.75
2023-04-22T20:50:25.669Z,25.75
2023-04-22T20:52:53.261Z,26.98
2023-04-22T20:55:20.227Z,27.23
2023-04-22T20:57:47.148Z,24.88
2023-04-22T21:00:14.770Z,31.50
2023-04-22T21:02:42.556Z,27.48
2023-04-22T21:05:11.344Z,24.95
2023-04-22T21:07:42.156Z,27.70
2023-04-22T21:10:09.824Z,23.88
2023-04-22T21:12:38.194Z,28.70
2023-04-22T21:15:06.176Z,28.17
2023-04-22T21:17:35.337Z,28.55
2023-04-22T21:20:05.393Z,29.73
2023-04-22T21:22:32.748Z,29.13
2023-04-22T21:25:00.727Z,35.97
2023-04-22T21:27:27.892Z,39.88
2023-04-22T21:29:55.370Z,32.33
2023-04-22T21:32:22.288Z,31.17
2023-04-22T21:34:49.278Z,29.23
2023-04-22T21:37:16.227Z,31.08
2023-04-22T21:39:43.247Z,31.45
2023-04-22T21:42:10.541Z,34.97
2023-04-22T21:44:38.208Z,31.63
2023-04-22T21:47:05.855Z,37.28
2023-04-22T21:49:33.033Z,36.50
2023-04-22T21:52:00.017Z,33.15
2023-04-22T21:54:27.096Z,33.13
2023-04-22T21:56:54.065Z,37.75
2023-04-22T21:59:21.025Z,35.22
2023-04-22T22:01:48.033Z,38.33
2023-04-22T22:04:16.227Z,40.53
2023-04-22T22:06:44.950Z,36.55
2023-04-22T22:09:12.434Z,40.75
2023-04-22T22:11:39.460Z,38.92
2023-04-22T22:14:06.384Z,35.47
2023-04-22T22:16:33.539Z,40.90
2023-04-22T22:19:02.755Z,35.63
2023-04-22T22:21:29.943Z,36.00
2023-04-22T22:23:57.835Z,40.25
2023-04-22T22:26:24.922Z,41.47
2023-04-22T22:28:51.904Z,39.15
2023-04-22T22:31:19.027Z,43.33
2023-04-22T22:33:46.075Z,49.22
2023-04-22T22:36:13.032Z,43.58
2023-04-22T22:38:39.959Z,43.55
2023-04-22T22:41:06.912Z,41.17
2023-04-22T22:43:33.817Z,38.53
2023-04-22T22:46:00.891Z,42.72
2023-04-22T22:48:27.976Z,39.13
2023-04-22T22:50:56.645Z,39.33
2023-04-22T22:53:23.617Z,38.75
2023-04-22T22:55:50.700Z,40.70
2023-04-22T22:58:17.664Z,38.30
2023-04-22T23:00:44.605Z,38.45
2023-04-22T23:03:12.998Z,38.17
2023-04-22T23:05:40.041Z,46.13
2023-04-22T23:08:07.174Z,38.03
2023-04-22T23:10:34.091Z,36.40
2023-04-22T23:13:01.157Z,46.92
2023-04-22T23:15:28.298Z,39.42
2023-04-22T23:17:55.222Z,42.38
2023-04-22T23:20:23.675Z,43.38
2023-04-22T23:22:51.952Z,40.25
2023-04-22T23:25:19.567Z,40.13
2023-04-22T23:27:46.643Z,47.95
2023-04-22T23:30:14.008Z,41.75
2023-04-22T23:32:42.668Z,44.03
2023-04-22T23:35:12.735Z,42.58
2023-04-22T23:37:46.392Z,43.08
2023-04-22T23:40:13.803Z,41.17
2023-04-22T23:42:40.770Z,38.25
2023-04-22T23:45:08.456Z,44.58
2023-04-22T23:47:35.538Z,41.03
2023-04-22T23:50:03.458Z,43.03
2023-04-22T23:52:30.466Z,43.63
2023-04-22T23:54:57.752Z,42.92
2023-04-22T23:57:25.005Z,45.40
2023-04-22T23:59:52.186Z,42.10
